Time;durP1;ratioP1;P1;durP2;ratioP2;P2;SDS_P1;SDS_P2;PMS_P1;PMS_P2;Temp;Humidity;BMP_temperature;BMP_pressure;BME280_temperature;BME280_humidity;BME280_pressure;Samples;Min_cycle;Max_cycle;Signal;HPM_P1;HPM_P2
2021/12/31 00:00:46;;;;;;;27.63;11.77;;;11.10;99.90;;;9.79;100.00;100839.44;6050866;23;20693;-80
2021/12/31 00:03:14;;;;;;;27.23;12.20;;;11.10;99.90;;;9.82;100.00;100932.19;6021320;23;20021;-81
2021/12/31 00:05:40;;;;;;;24.85;10.82;;;11.20;99.90;;;9.85;100.00;100937.34;6044150;23;20079;-80
2021/12/31 00:08:13;;;;;;;28.80;11.55;;;11.20;99.90;;;9.85;100.00;100926.00;6045508;23;20017;-80
2021/12/31 00:10:39;;;;;;;28.15;11.23;;;11.20;99.90;;;9.83;100.00;100938.34;6021842;23;20371;-80
2021/12/31 00:13:05;;;;;;;29.55;11.13;;;11.10;99.90;;;9.84;100.00;100895.34;6035690;23;20009;-80
2021/12/31 00:15:31;;;;;;;22.65;9.27;;;11.20;99.90;;;9.81;100.00;100914.72;6033825;23;20431;-81
2021/12/31 00:18:05;;;;;;;21.23;9.90;;;11.10;99.90;;;9.80;100.00;100923.53;6108015;23;20458;-80
2021/12/31 00:20:32;;;;;;;23.58;9.98;;;11.20;99.90;;;9.81;100.00;100913.88;6041263;23;19997;-80
2021/12/31 00:23:08;;;;;;;25.25;10.70;;;11.10;99.90;;;9.80;100.00;100904.25;6038542;23;20093;-80
2021/12/31 00:25:44;;;;;;;22.05;10.55;;;11.10;99.90;;;9.81;100.00;100871.81;6044303;23;20008;-81
2021/12/31 00:28:12;;;;;;;27.08;10.90;;;11.10;99.90;;;9.81;100.00;100848.13;6057361;23;20019;-80
2021/12/31 00:30:39;;;;;;;25.88;10.63;;;11.10;99.90;;;9.84;100.00;100824.31;6067065;23;20012;-81
2021/12/31 00:33:08;;;;;;;24.92;10.77;;;11.10;99.90;;;9.85;100.00;100810.28;6059678;23;19997;-81
2021/12/31 00:35:39;;;;;;;27.65;10.82;;;11.20;99.90;;;9.83;100.00;100805.06;6037988;23;20016;-81
2021/12/31 00:38:05;;;;;;;24.33;9.80;;;11.10;99.90;;;9.83;100.00;100820.00;6061149;23;20056;-80
2021/12/31 00:40:31;;;;;;;24.45;9.85;;;11.20;99.90;;;9.85;100.00;100826.91;6063592;23;20016;-80
2021/12/31 00:42:58;;;;;;;19.95;10.15;;;11.20;99.90;;;9.84;100.00;100812.03;6058313;23;20040;-80
2021/12/31 00:45:25;;;;;;;21.15;9.93;;;11.20;99.90;;;9.83;100.00;100809.47;6093880;23;20021;-81
2021/12/31 00:47:57;;;;;;;22.55;10.02;;;11.20;99.90;;;9.82;100.00;100765.66;6060660;23;20013;-80
2021/12/31 00:50:24;;;;;;;25.35;9.82;;;11.20;99.90;;;9.82;100.00;100794.59;6135148;23;20019;-80
2021/12/31 00:52:50;;;;;;;27.60;9.75;;;11.10;99.90;;;9.80;100.00;100792.03;6123735;23;20016;-81
2021/12/31 00:55:16;;;;;;;22.00;9.52;;;11.20;99.90;;;9.81;100.00;100793.75;6015846;23;20001;-80
2021/12/31 00:57:50;;;;;;;26.25;9.98;;;11.20;99.90;;;9.83;100.00;100791.06;6055409;23;20003;-81
2021/12/31 01:00:16;;;;;;;23.77;9.65;;;11.20;99.90;;;9.84;100.00;100787.50;6041427;23;20585;-80
2021/12/31 01:02:46;;;;;;;24.65;9.60;;;11.20;99.90;;;9.82;100.00;100784.94;6042202;23;20078;-80
2021/12/31 01:05:17;;;;;;;25.92;9.23;;;11.20;99.90;;;9.83;100.00;100789.28;6024967;23;20469;-80
2021/12/31 01:07:45;;;;;;;20.65;8.85;;;11.20;99.90;;;9.83;100.00;100776.13;6030379;23;20016;-79
2021/12/31 01:10:14;;;;;;;26.90;9.88;;;11.20;99.90;;;9.85;100.00;100768.19;6054272;23;20008;-80
2021/12/31 01:12:44;;;;;;;22.92;8.90;;;11.20;99.90;;;9.86;100.00;100769.88;6025924;23;19998;-80
2021/12/31 01:15:20;;;;;;;21.55;8.77;;;11.20;99.90;;;9.89;100.00;100774.16;6073309;23;20422;-80
2021/12/31 01:18:15;;;;;;;22.90;8.27;;;11.20;99.90;;;9.85;100.00;100769.03;6032232;23;20092;-80
2021/12/31 01:20:36;;;;;;;21.45;8.02;;;11.20;99.90;;;9.84;100.00;100769.94;6112884;23;20334;-79
2021/12/31 01:23:07;;;;;;;25.70;8.85;;;11.20;99.90;;;9.84;100.00;100761.22;6060344;23;20518;-80
2021/12/31 01:25:33;;;;;;;26.52;9.23;;;11.20;99.90;;;9.89;100.00;100769.75;6097606;23;20482;-81
2021/12/31 01:27:59;;;;;;;31.00;10.10;;;11.20;99.90;;;9.89;100.00;100775.00;6069856;23;20016;-80
2021/12/31 01:30:25;;;;;;;28.67;10.30;;;11.20;99.90;;;9.89;100.00;100787.31;6009617;23;20005;-80
2021/12/31 01:32:52;;;;;;;26.35;10.30;;;11.20;99.90;;;9.93;100.00;100768.69;6027019;23;20012;-80
2021/12/31 01:35:27;;;;;;;27.15;10.23;;;11.20;99.90;;;9.96;100.00;100763.31;6050897;23;20025;-80
2021/12/31 01:37:53;;;;;;;28.38;9.82;;;11.20;99.90;;;9.98;100.00;100753.59;6075092;23;20005;-80
2021/12/31 01:40:19;;;;;;;30.50;9.15;;;11.30;99.90;;;10.02;100.00;100773.56;6054987;23;20071;-80
2021/12/31 01:42:45;;;;;;;28.50;9.50;;;11.30;99.90;;;10.06;100.00;100766.38;6032153;23;20033;-80
2021/12/31 01:45:19;;;;;;;20.98;8.40;;;11.40;99.90;;;10.07;100.00;100765.47;6056074;23;20351;-80
2021/12/31 01:47:56;;;;;;;26.13;9.07;;;11.40;99.90;;;10.10;100.00;100770.59;6077429;23;20037;-80
2021/12/31 01:50:27;;;;;;;23.52;8.15;;;11.40;99.90;;;10.11;100.00;100759.16;6074005;23;20107;-81
2021/12/31 01:53:01;;;;;;;23.17;8.80;;;11.40;99.90;;;10.12;100.00;100754.75;6056755;23;20012;-79
2021/12/31 01:55:32;;;;;;;25.60;8.25;;;11.40;99.90;;;10.10;100.00;100709.22;6027715;23;20085;-80
2021/12/31 01:58:05;;;;;;;26.15;8.18;;;11.40;99.90;;;10.12;100.00;100710.88;6064279;23;20037;-80
2021/12/31 02:00:31;;;;;;;24.73;8.27;;;11.40;99.90;;;10.10;100.00;100769.75;6038074;23;20104;-80
2021/12/31 02:03:00;;;;;;;27.25;9.02;;;11.40;99.90;;;10.11;100.00;100792.50;6088871;23;20341;-81
2021/12/31 02:05:32;;;;;;;28.27;9.02;;;11.40;99.90;;;10.13;100.00;100798.53;6085245;23;20080;-81
2021/12/31 02:07:59;;;;;;;28.00;9.57;;;11.40;99.90;;;10.14;100.00;100795.00;6037590;23;20001;-80
2021/12/31 02:10:26;;;;;;;25.48;9.13;;;11.50;99.90;;;10.15;100.00;100817.75;6058325;23;20001;-80
2021/12/31 02:13:03;;;;;;;23.23;8.88;;;11.40;99.90;;;10.16;100.00;100838.75;6070032;23;20071;-80
2021/12/31 02:15:30;;;;;;;25.17;9.32;;;11.50;99.90;;;10.14;100.00;100843.22;6044127;23;20016;-80
2021/12/31 02:17:59;;;;;;;24.45;8.55;;;11.50;99.90;;;10.16;100.00;100841.38;6065091;23;20011;-80
2021/12/31 02:20:36;;;;;;;25.65;8.85;;;11.50;99.90;;;10.16;100.00;100880.84;6021876;23;20041;-81
2021/12/31 02:23:14;;;;;;;20.90;8.07;;;11.40;99.90;;;10.16;100.00;100898.41;6076791;23;20024;-80
2021/12/31 02:25:41;;;;;;;21.70;7.78;;;11.50;99.90;;;10.18;100.00;100891.31;6041324;23;20020;-80
2021/12/31 02:28:16;;;;;;;19.95;7.40;;;11.30;99.90;;;10.16;100.00;100928.19;6070418;23;20095;-81
2021/12/31 02:30:43;;;;;;;21.63;7.95;;;11.50;99.90;;;10.18;100.00;100933.41;6107175;23;20350;-80
2021/12/31 02:33:09;;;;;;;18.10;7.47;;;11.50;99.90;;;10.18;100.00;100907.94;6059820;23;20010;-81
2021/12/31 02:35:45;;;;;;;15.52;6.93;;;11.50;99.90;;;10.18;100.00;100933.41;6023511;23;20024;-81
2021/12/31 02:38:11;;;;;;;15.73;6.82;;;11.50;99.90;;;10.20;100.00;100960.53;6036413;23;20005;-81
2021/12/31 02:40:37;;;;;;;16.13;6.90;;;11.50;99.90;;;10.18;100.00;100951.84;6111226;23;20023;-81
2021/12/31 02:43:11;;;;;;;14.80;6.53;;;11.50;99.90;;;10.23;100.00;100968.28;6044121;23;20039;-80
2021/12/31 02:45:37;;;;;;;17.63;6.25;;;11.60;99.90;;;10.24;100.00;100977.91;6148683;23;20089;-80
2021/12/31 02:48:06;;;;;;;16.98;5.90;;;11.50;99.90;;;10.27;100.00;101004.06;6055296;23;20025;-80
2021/12/31 02:50:42;;;;;;;13.93;5.00;;;11.60;99.90;;;10.27;100.00;101002.28;6053090;23;20456;-81
2021/12/31 02:53:16;;;;;;;12.20;4.80;;;11.60;99.90;;;10.29;100.00;101007.53;6041452;23;20016;-80
2021/12/31 02:55:44;;;;;;;9.95;3.95;;;11.60;99.90;;;10.30;100.00;101006.59;6050784;23;20005;-80
2021/12/31 02:58:11;;;;;;;13.35;4.20;;;11.60;99.90;;;10.31;100.00;101032.03;6069483;23;20467;-80
2021/12/31 03:00:44;;;;;;;9.02;4.10;;;11.60;99.90;;;10.31;100.00;101045.19;6024153;23;20050;-81
2021/12/31 03:03:12;;;;;;;10.52;3.72;;;11.60;99.90;;;10.31;100.00;101018.88;6058835;23;20021;-81
2021/12/31 03:05:40;;;;;;;10.68;4.00;;;11.60;99.90;;;10.33;100.00;101010.91;6081949;23;20041;-81
2021/12/31 03:08:17;;;;;;;10.13;4.20;;;11.60;99.90;;;10.36;100.00;101006.34;6049034;23;20474;-81
2021/12/31 03:10:53;;;;;;;14.07;4.45;;;11.70;99.90;;;10.38;100.00;101007.16;6071994;23;20216;-80
2021/12/31 03:13:19;;;;;;;12.30;4.25;;;11.70;99.90;;;10.39;100.00;101000.97;6152906;23;20007;-81
2021/12/31 03:15:46;;;;;;;11.55;4.35;;;11.70;99.90;;;10.40;100.00;100992.16;6031298;23;20048;-80
2021/12/31 03:18:21;;;;;;;10.50;4.10;;;11.70;99.90;;;10.41;100.00;100983.34;6047373;23;20009;-80
2021/12/31 03:20:57;;;;;;;10.68;4.40;;;11.70;99.90;;;10.40;100.00;100976.34;6047432;23;19997;-80
2021/12/31 03:23:28;;;;;;;17.52;4.45;;;11.70;99.90;;;10.41;100.00;100956.16;6046034;23;20017;-80
2021/12/31 03:25:56;;;;;;;8.82;4.05;;;11.70;99.90;;;10.44;100.00;100951.63;6168135;23;20487;-81
2021/12/31 03:28:22;;;;;;;8.05;3.70;;;11.70;99.90;;;10.43;100.00;100938.50;6039463;23;20005;-81
2021/12/31 03:30:55;;;;;;;6.85;3.17;;;11.80;99.90;;;10.46;100.00;100936.63;6040602;23;20012;-81
2021/12/31 03:33:22;;;;;;;8.60;2.47;;;11.80;99.90;;;10.50;100.00;100920.72;6026782;23;20020;-80
2021/12/31 03:35:48;;;;;;;4.25;2.60;;;11.80;99.90;;;10.51;100.00;100925.88;6033815;23;20064;-81
2021/12/31 03:38:18;;;;;;;4.93;2.60;;;11.80;99.90;;;10.53;100.00;100913.50;6049260;23;20012;-81
2021/12/31 03:40:46;;;;;;;6.15;2.40;;;11.80;99.90;;;10.55;100.00;100921.34;6070925;23;20010;-81
2021/12/31 03:43:12;;;;;;;6.88;2.08;;;11.90;99.90;;;10.55;100.00;100916.94;6106720;23;20063;-81
2021/12/31 03:45:40;;;;;;;3.47;1.90;;;11.90;99.90;;;10.57;100.00;100858.94;6057712;23;20502;-80
2021/12/31 03:48:09;;;;;;;4.03;1.52;;;11.90;99.90;;;10.57;100.00;100893.19;6059401;23;20027;-81
2021/12/31 03:50:37;;;;;;;2.05;1.25;;;11.90;99.90;;;10.57;100.00;100908.97;6102104;23;20013;-81
2021/12/31 03:53:04;;;;;;;6.63;1.58;;;11.90;99.90;;;10.61;100.00;100790.28;6028827;23;20439;-81
2021/12/31 03:55:30;;;;;;;3.05;0.95;;;11.90;99.90;;;10.59;100.00;100907.13;6098420;23;20004;-81
2021/12/31 03:57:55;;;;;;;1.88;0.95;;;11.90;99.90;;;10.60;100.00;100658.69;6050952;23;20465;-80
2021/12/31 04:00:21;;;;;;;1.15;0.88;;;11.90;99.90;;;10.57;100.00;100678.13;6076015;23;20005;-81
2021/12/31 04:02:52;;;;;;;1.08;0.85;;;11.90;99.90;;;10.59;100.00;100823.72;6114182;23;20502;-82
2021/12/31 04:05:18;;;;;;;1.45;0.88;;;12.00;99.90;;;10.58;100.00;100866.78;6101875;23;20045;-81
2021/12/31 04:07:44;;;;;;;1.85;0.90;;;11.90;99.90;;;10.62;100.00;100975.44;6088224;23;20004;-82
2021/12/31 04:10:10;;;;;;;1.83;1.23;;;11.60;99.90;;;10.62;100.00;100917.53;6078662;23;20047;-81
2021/12/31 04:12:36;;;;;;;2.63;1.58;;;12.00;99.90;;;10.62;100.00;101043.91;6015271;23;20051;-81
2021/12/31 04:15:09;;;;;;;3.60;1.50;;;12.00;99.90;;;10.65;100.00;101054.34;6003739;23;20336;-81
2021/12/31 04:17:35;;;;;;;2.55;1.65;;;12.00;99.90;;;10.64;100.00;101048.19;6021472;23;20012;-82
2021/12/31 04:20:01;;;;;;;5.80;2.30;;;12.00;99.90;;;10.65;100.00;101049.06;6068802;23;20383;-81
2021/12/31 04:22:29;;;;;;;7.20;2.65;;;12.00;99.90;;;10.65;100.00;100901.59;6071478;23;20100;-80
2021/12/31 04:24:59;;;;;;;4.40;2.50;;;12.00;99.90;;;10.68;100.00;100933.06;6019361;23;20492;-82
2021/12/31 04:27:25;;;;;;;4.72;2.40;;;12.00;99.90;;;10.67;100.00;101020.91;6095002;23;20015;-82
2021/12/31 04:29:52;;;;;;;6.15;2.70;;;12.00;99.90;;;10.66;100.00;101020.03;6080301;23;20004;-82
2021/12/31 04:32:21;;;;;;;7.78;2.55;;;12.00;99.90;;;10.65;100.00;101068.34;6060340;23;20007;-81
2021/12/31 04:34:55;;;;;;;4.97;2.53;;;12.00;99.90;;;10.69;100.00;101087.53;6072499;23;20012;-81
2021/12/31 04:37:21;;;;;;;4.70;2.60;;;12.00;99.90;;;10.72;100.00;101092.66;6047506;23;20467;-81
2021/12/31 04:39:47;;;;;;;3.72;2.30;;;12.00;99.90;;;10.71;100.00;101095.34;5996389;23;20021;-81
2021/12/31 04:42:13;;;;;;;5.35;2.88;;;12.00;99.90;;;10.68;100.00;101065.59;6041608;23;20051;-82
2021/12/31 04:44:43;;;;;;;5.82;3.45;;;12.00;99.90;;;10.71;100.00;101058.47;6079821;23;20439;-81
2021/12/31 04:47:09;;;;;;;6.38;2.95;;;12.10;99.90;;;10.73;100.00;101015.34;6040672;23;20562;-82
2021/12/31 04:49:35;;;;;;;9.25;3.35;;;12.10;99.90;;;10.74;100.00;101001.28;6032277;23;20008;-81
2021/12/31 04:52:01;;;;;;;5.53;3.45;;;12.10;99.90;;;10.74;100.00;100996.00;6052187;23;20001;-81
2021/12/31 04:54:27;;;;;;;7.30;4.07;;;12.10;99.90;;;10.72;100.00;100958.34;6069160;23;20002;-81
2021/12/31 04:56:54;;;;;;;6.80;3.88;;;12.10;99.90;;;10.74;100.00;100948.59;6008213;23;20013;-80
2021/12/31 04:59:23;;;;;;;8.50;3.88;;;12.10;99.90;;;10.77;100.00;100943.19;6048746;23;20008;-81
2021/12/31 05:01:49;;;;;;;8.65;4.47;;;12.10;99.90;;;10.76;100.00;100966.97;6009308;23;20002;-82
2021/12/31 05:04:16;;;;;;;13.20;5.10;;;12.10;99.90;;;10.77;100.00;100974.78;6041987;23;20014;-81
2021/12/31 05:06:42;;;;;;;9.85;4.85;;;12.10;99.90;;;10.76;100.00;100978.34;6041116;23;20015;-82
2021/12/31 05:09:19;;;;;;;10.95;5.40;;;12.10;99.90;;;10.76;100.00;101020.50;6031308;23;20440;-82
2021/12/31 05:11:45;;;;;;;;;;;12.10;99.90;;;10.72;100.00;101047.03;6095181;23;20269;-82
2021/12/31 05:14:11;;;;;;;11.33;5.00;;;12.10;99.90;;;10.74;100.00;101069.75;6090323;23;19904;-82
2021/12/31 05:16:37;;;;;;;12.65;5.60;;;12.10;99.90;;;10.74;100.00;101082.91;6124708;23;20263;-82
2021/12/31 05:19:06;;;;;;;11.68;5.82;;;12.10;99.90;;;10.77;100.00;101103.84;6071119;23;20003;-82
2021/12/31 05:21:32;;;;;;;11.20;6.00;;;12.10;99.90;;;10.78;100.00;101115.28;6037192;23;20070;-81
2021/12/31 05:23:59;;;;;;;13.15;6.40;;;12.30;99.90;;;10.80;100.00;101111.66;6095412;23;20018;-81
2021/12/31 05:26:26;;;;;;;12.55;6.60;;;12.10;99.90;;;10.81;100.00;101129.16;6069686;23;20095;-81
2021/12/31 05:28:52;;;;;;;12.20;5.35;;;12.10;99.90;;;10.84;100.00;101146.59;6134863;23;20020;-81
2021/12/31 05:31:17;;;;;;;16.80;6.25;;;12.20;99.90;;;10.81;100.00;101155.50;6041831;23;20490;-82
2021/12/31 05:33:49;;;;;;;14.40;5.88;;;12.20;99.90;;;10.83;100.00;101147.53;6040996;23;20006;-82
2021/12/31 05:36:16;;;;;;;11.23;5.60;;;12.20;99.90;;;10.84;100.00;101143.97;6094159;23;20066;-82
2021/12/31 05:38:43;;;;;;;11.32;6.55;;;12.20;99.90;;;10.84;100.00;101192.25;6048493;23;20019;-81
2021/12/31 05:41:09;;;;;;;11.30;6.03;;;12.20;99.90;;;10.84;100.00;101197.53;6078509;23;21323;-80
2021/12/31 05:43:40;;;;;;;12.98;6.78;;;12.20;99.90;;;10.83;100.00;101180.00;6064252;23;20018;-82
2021/12/31 05:46:06;;;;;;;12.73;6.20;;;12.20;99.90;;;10.87;100.00;101222.91;6021686;23;20459;-82
2021/12/31 05:48:32;;;;;;;11.38;6.88;;;12.20;99.90;;;10.87;100.00;101243.97;6032671;23;20028;-80
2021/12/31 05:50:58;;;;;;;13.02;6.63;;;12.20;99.90;;;10.86;100.00;101231.69;6103557;23;20016;-81
2021/12/31 05:53:25;;;;;;;15.65;6.63;;;12.20;99.90;;;10.87;100.00;101222.91;6041373;23;20011;-82
2021/12/31 05:55:57;;;;;;;11.25;7.10;;;12.20;99.90;;;10.88;100.00;101228.09;6088926;23;20099;-82
2021/12/31 05:58:23;;;;;;;14.77;6.03;;;12.20;99.90;;;10.90;100.00;101221.91;6030632;23;20020;-81
2021/12/31 06:00:49;;;;;;;10.10;6.30;;;12.20;99.90;;;10.90;100.00;101232.44;6006284;23;20024;-82
2021/12/31 06:03:15;;;;;;;13.07;6.05;;;12.30;99.90;;;10.91;100.00;101273.66;6009364;23;20450;-81
2021/12/31 06:05:40;;;;;;;15.48;6.78;;;12.30;99.90;;;10.88;100.00;101251.81;6035332;23;20812;-82
2021/12/31 06:08:14;;;;;;;16.42;7.05;;;12.30;99.90;;;10.91;100.00;101229.75;6075780;23;19997;-81
2021/12/31 06:10:43;;;;;;;15.15;7.65;;;12.30;99.90;;;10.91;100.00;101261.38;6100539;23;20004;-82
2021/12/31 06:13:12;;;;;;;15.05;7.75;;;12.20;99.90;;;10.91;100.00;101255.22;6075335;23;20044;-82
2021/12/31 06:15:42;;;;;;;15.95;8.23;;;12.20;99.90;;;10.92;100.00;101278.03;6047657;23;20099;-82
2021/12/31 06:18:10;;;;;;;16.55;8.38;;;12.30;99.90;;;10.91;100.00;101311.44;6061442;23;20016;-81
2021/12/31 06:20:36;;;;;;;14.35;8.30;;;12.30;99.90;;;10.88;100.00;101293.97;6038858;23;20016;-81
2021/12/31 06:23:05;;;;;;;18.05;9.35;;;12.30;99.90;;;10.92;100.00;101268.34;6128234;23;20016;-81
2021/12/31 06:25:33;;;;;;;21.75;9.45;;;12.20;99.90;;;10.90;100.00;101312.34;6074856;23;20068;-82
2021/12/31 06:28:01;;;;;;;22.33;11.05;;;12.30;99.90;;;10.92;100.00;101267.50;6048368;23;20407;-82
2021/12/31 06:30:28;;;;;;;22.45;10.57;;;12.20;99.90;;;10.93;100.00;101263.94;6065939;23;20001;-81
2021/12/31 06:32:56;;;;;;;22.40;10.45;;;12.30;99.90;;;10.90;100.00;101274.59;6068808;23;20005;-81
2021/12/31 06:35:25;;;;;;;21.73;10.55;;;12.30;99.90;;;10.95;100.00;101296.34;6073217;23;20001;-82
2021/12/31 06:37:53;;;;;;;18.27;9.15;;;12.30;99.90;;;10.94;100.00;101292.84;6079997;23;20005;-81
2021/12/31 06:40:19;;;;;;;27.60;10.27;;;12.30;99.90;;;10.95;100.00;101272.63;6033095;23;20009;-82
2021/12/31 06:42:45;;;;;;;28.20;10.10;;;12.30;99.90;;;10.98;100.00;101267.25;6045549;23;20320;-81
2021/12/31 06:45:16;;;;;;;19.15;9.57;;;12.30;99.90;;;10.98;100.00;101230.38;6081204;23;20011;-82
2021/12/31 06:47:42;;;;;;;27.27;10.00;;;12.30;99.90;;;10.97;100.00;101194.38;6074284;23;20025;-83
2021/12/31 06:50:08;;;;;;;21.50;10.13;;;12.30;99.90;;;10.97;100.00;101192.63;6012755;23;20024;-81
2021/12/31 06:52:47;;;;;;;24.23;9.63;;;12.30;99.90;;;10.99;100.00;101195.19;6040752;23;20013;-81
2021/12/31 06:55:14;;;;;;;21.23;9.95;;;12.30;99.90;;;11.00;100.00;101152.97;6042635;23;20078;-82
2021/12/31 06:57:40;;;;;;;21.65;9.68;;;12.30;99.90;;;11.02;100.00;101145.00;6083843;23;20008;-81
2021/12/31 07:00:13;;;;;;;21.88;9.55;;;12.30;99.90;;;11.03;100.00;101139.66;6086194;23;20019;-83
2021/12/31 07:02:39;;;;;;;19.75;9.93;;;12.30;99.90;;;11.02;100.00;101126.56;6033089;23;20020;-81
2021/12/31 07:05:05;;;;;;;27.25;9.52;;;12.30;99.90;;;11.03;100.00;101113.28;6077606;23;20044;-81
2021/12/31 07:07:31;;;;;;;21.38;10.38;;;12.40;99.90;;;11.04;100.00;101114.19;6078034;23;20051;-80
2021/12/31 07:09:57;;;;;;;26.02;10.63;;;12.40;99.90;;;11.03;100.00;101110.66;6124035;23;19996;-81
2021/12/31 07:12:28;;;;;;;26.02;10.75;;;12.30;99.90;;;11.02;100.00;101108.97;6071134;23;20005;-81
2021/12/31 07:14:53;;;;;;;22.90;10.27;;;12.40;99.90;;;11.04;100.00;101083.41;6015365;23;20005;-81
2021/12/31 07:17:19;;;;;;;18.45;9.23;;;12.40;99.90;;;11.06;100.00;101088.63;6066840;23;20016;-82
2021/12/31 07:19:45;;;;;;;22.52;9.82;;;12.40;99.90;;;11.05;100.00;101097.44;6118732;23;20355;-81
2021/12/31 07:22:11;;;;;;;22.48;9.25;;;12.30;99.90;;;11.04;100.00;101079.91;6110741;23;20452;-81
2021/12/31 07:24:37;;;;;;;29.95;9.52;;;12.40;99.90;;;11.05;100.00;101081.63;6077109;23;20005;-81
2021/12/31 07:27:10;;;;;;;21.00;9.65;;;12.40;99.90;;;11.05;100.00;101076.34;6083478;23;20007;-81
2021/12/31 07:29:36;;;;;;;17.92;8.70;;;12.40;99.90;;;11.07;100.00;101069.22;6045794;23;20011;-82
2021/12/31 07:32:02;;;;;;;21.58;8.90;;;12.40;99.90;;;11.06;100.00;101062.28;6039776;23;20396;-80
2021/12/31 07:34:28;;;;;;;19.67;7.95;;;12.40;99.90;;;11.07;100.00;101067.44;6037865;23;20000;-82
2021/12/31 07:36:59;;;;;;;12.52;7.20;;;12.40;99.90;;;11.07;100.00;101048.16;6059715;23;20015;-80
2021/12/31 07:39:32;;;;;;;20.15;7.95;;;12.40;99.90;;;11.07;100.00;101056.06;6056263;23;20444;-85
2021/12/31 07:42:03;;;;;;;16.92;6.75;;;12.40;99.90;;;11.08;100.00;101041.97;6051166;23;20001;-81
2021/12/31 07:44:29;;;;;;;27.33;6.97;;;12.40;99.90;;;11.07;100.00;101043.72;6038419;23;20024;-81
2021/12/31 07:46:55;;;;;;;23.27;6.93;;;12.40;99.90;;;11.07;100.00;101062.19;6079986;23;20025;-82
2021/12/31 07:49:21;;;;;;;14.43;5.97;;;12.40;99.90;;;11.09;100.00;101051.56;6073315;23;20008;-82
2021/12/31 07:51:47;;;;;;;21.95;6.88;;;12.40;99.90;;;11.09;100.00;101051.56;5990923;23;20009;-82
2021/12/31 07:54:12;;;;;;;17.38;5.90;;;12.40;99.90;;;11.09;100.00;101027.84;6092546;23;20027;-82
2021/12/31 07:56:44;;;;;;;23.02;7.05;;;12.40;99.90;;;11.09;100.00;101030.50;6062083;23;20071;-81
2021/12/31 07:59:10;;;;;;;18.38;6.43;;;12.40;99.90;;;11.13;100.00;101020.69;6058235;23;20004;-81
2021/12/31 08:01:36;;;;;;;17.88;6.72;;;12.40;99.90;;;11.15;100.00;101016.19;6066935;23;20007;-82
2021/12/31 08:04:02;;;;;;;20.27;6.45;;;12.40;99.90;;;11.16;100.00;101029.28;6040083;23;20020;-81
2021/12/31 08:06:28;;;;;;;19.85;6.35;;;12.40;99.90;;;11.15;100.00;101016.19;6177331;23;20730;-79
2021/12/31 08:08:59;;;;;;;18.77;5.88;;;12.40;99.90;;;11.15;100.00;101006.50;6047195;23;20012;-82
2021/12/31 08:11:25;;;;;;;11.55;5.47;;;12.50;99.90;;;11.17;100.00;101027.53;6052170;23;20006;-82
2021/12/31 08:13:51;;;;;;;14.50;5.95;;;12.50;99.90;;;11.21;100.00;101042.25;6058976;23;20009;-81
2021/12/31 08:16:17;;;;;;;21.90;6.47;;;12.50;99.90;;;11.18;100.00;101001.09;6019059;23;20009;-81
2021/12/31 08:18:43;;;;;;;23.48;6.70;;;12.50;99.90;;;11.18;100.00;101002.88;6049300;23;20006;-81
2021/12/31 08:21:08;;;;;;;17.33;5.78;;;12.50;99.90;;;11.18;100.00;100990.53;6007326;23;20084;-82
2021/12/31 08:23:42;;;;;;;15.45;5.18;;;12.50;99.90;;;11.21;100.00;100995.69;6014985;23;20005;-80
2021/12/31 08:26:08;;;;;;;18.23;5.53;;;12.50;99.90;;;11.24;100.00;100957.78;6014104;23;20051;-82
2021/12/31 08:28:34;;;;;;;11.90;4.68;;;12.50;99.90;;;11.24;100.00;101011.38;6026073;23;20012;-80
2021/12/31 08:31:00;;;;;;;18.52;5.15;;;12.60;99.90;;;11.27;100.00;101005.97;6035555;23;20004;-82
2021/12/31 08:33:31;;;;;;;15.77;5.30;;;12.60;99.90;;;11.26;100.00;100998.97;6058840;23;21029;-81
2021/12/31 08:35:57;;;;;;;17.77;5.60;;;12.60;99.90;;;11.32;100.00;101010.16;6019439;23;20112;-82
2021/12/31 08:38:24;;;;;;;20.90;5.20;;;12.60;99.90;;;11.31;100.00;100987.38;6008638;23;20050;-81
2021/12/31 08:40:50;;;;;;;17.35;6.28;;;12.60;99.90;;;11.32;100.00;100984.66;6088758;23;19997;-82
2021/12/31 08:43:17;;;;;;;18.00;5.80;;;12.60;99.90;;;11.34;100.00;100984.56;6099751;23;20027;-81
2021/12/31 08:45:45;;;;;;;18.70;6.35;;;12.60;99.90;;;11.34;100.00;100982.81;6028080;23;20020;-81
2021/12/31 08:48:11;;;;;;;17.00;5.60;;;12.60;99.90;;;11.33;100.00;100977.59;6054882;23;20021;-81
2021/12/31 08:50:38;;;;;;;19.50;5.80;;;12.60;99.90;;;11.30;100.00;100983.88;6096146;23;20013;-81
2021/12/31 08:53:05;;;;;;;14.75;5.72;;;12.60;99.90;;;11.28;100.00;100976.03;6061011;23;20067;-82
2021/12/31 08:55:31;;;;;;;18.00;5.38;;;12.60;99.90;;;11.33;100.00;100967.06;6020538;23;20332;-81
2021/12/31 08:57:57;;;;;;;16.55;5.47;;;12.60;99.90;;;11.31;100.00;100964.50;6100795;23;20065;-80
2021/12/31 09:00:31;;;;;;;21.25;5.35;;;12.60;99.90;;;11.32;100.00;100966.22;6028212;23;20001;-81
2021/12/31 09:03:00;;;;;;;13.77;4.93;;;12.60;99.90;;;11.32;100.00;100966.22;6028487;23;20044;-81
2021/12/31 09:05:35;;;;;;;18.95;5.95;;;12.60;99.90;;;11.33;100.00;100967.06;6078157;23;20005;-81
2021/12/31 09:08:01;;;;;;;14.95;5.35;;;12.60;99.90;;;11.34;100.00;100984.56;6076324;23;20001;-80
2021/12/31 09:10:27;;;;;;;13.23;5.40;;;12.60;99.90;;;11.36;100.00;100972.19;6065363;23;20040;-80
2021/12/31 09:12:54;;;;;;;16.08;5.32;;;12.60;99.90;;;11.38;100.00;100954.50;6048200;23;20005;-81
2021/12/31 09:15:23;;;;;;;15.68;5.63;;;12.70;99.90;;;11.42;100.00;100967.47;6156712;23;20063;-82
2021/12/31 09:17:49;;;;;;;18.58;5.68;;;12.70;99.90;;;11.40;100.00;100948.28;6075808;23;20008;-82
2021/12/31 09:20:21;;;;;;;22.45;5.75;;;12.70;99.90;;;11.44;100.00;100954.22;6064539;23;20008;-82
2021/12/31 09:22:55;;;;;;;15.43;5.22;;;12.70;99.90;;;11.46;100.00;100899.66;6066813;23;20027;-83
2021/12/31 09:25:21;;;;;;;16.13;6.28;;;12.70;99.90;;;11.45;100.00;100901.44;6074510;23;20016;-81
2021/12/31 09:28:00;;;;;;;15.52;6.13;;;12.70;99.90;;;11.48;100.00;100918.88;6011824;23;20012;-82
2021/12/31 09:30:26;;;;;;;14.07;6.07;;;12.70;99.90;;;11.48;100.00;100900.44;6048333;23;20023;-81
2021/12/31 09:32:52;;;;;;;19.27;6.60;;;12.70;99.90;;;11.46;100.00;100889.94;6030431;23;20020;-79
2021/12/31 09:35:19;;;;;;;13.65;5.68;;;12.70;99.90;;;11.46;100.00;100905.78;6085890;23;20012;-79
2021/12/31 09:37:48;;;;;;;10.75;5.60;;;12.80;99.90;;;11.49;100.00;100895.09;6014638;23;20012;-81
2021/12/31 09:40:18;;;;;;;14.80;5.90;;;12.80;99.90;;;11.48;100.00;100882.81;6023131;23;20006;-81
2021/12/31 09:43:09;;;;;;;14.90;4.75;;;12.70;99.90;;;11.50;100.00;100896.78;6055978;23;20016;-81
2021/12/31 09:45:37;;;;;;;16.38;4.88;;;12.80;99.90;;;11.51;100.00;100892.34;6086038;23;20276;-82
2021/12/31 09:48:14;;;;;;;12.98;4.97;;;12.80;99.90;;;11.50;100.00;100873.06;6053067;23;20423;-81
2021/12/31 09:50:47;;;;;;;10.18;4.22;;;12.80;99.90;;;11.54;100.00;100881.69;6049594;23;20008;-77
2021/12/31 09:53:17;;;;;;;11.05;4.45;;;12.80;99.90;;;11.54;100.00;100880.84;6106913;23;20405;-80
2021/12/31 09:55:51;;;;;;;12.73;4.45;;;12.80;99.90;;;11.54;100.00;100876.41;6096869;23;20001;-79
2021/12/31 09:58:21;;;;;;;12.07;4.25;;;12.80;99.90;;;11.56;100.00;100874.56;6143569;23;20001;-79
2021/12/31 10:00:50;;;;;;;9.27;4.40;;;12.80;99.90;;;11.57;100.00;100886.78;6039035;23;20081;-80
2021/12/31 10:03:21;;;;;;;7.43;4.07;;;12.90;99.90;;;11.59;100.00;100878.81;6124917;23;20021;-80
2021/12/31 10:05:51;;;;;;;10.90;4.20;;;12.80;99.90;;;11.59;100.00;100877.03;6136234;23;20032;-79